createdAt,value
2017-06-16T00:00:25.984Z,0
2017-06-16T00:01:06.493Z,0
2017-06-16T00:01:47.962Z,0
2017-06-16T00:02:28.481Z,0
2017-06-16T00:03:08.966Z,0
2017-06-16T00:03:49.470Z,0
2017-06-16T00:04:30.263Z,0
2017-06-16T00:05:10.751Z,0
2017-06-16T00:05:51.238Z,0
2017-06-16T00:06:31.790Z,0
2017-06-16T00:07:12.285Z,0
2017-06-16T00:07:52.820Z,0
2017-06-16T00:08:33.288Z,0
2017-06-16T00:09:13.887Z,0
2017-06-16T00:09:54.377Z,0
2017-06-16T00:10:34.909Z,0
2017-06-16T00:11:15.446Z,0
2017-06-16T00:11:55.934Z,0
2017-06-16T00:12:36.436Z,0
2017-06-16T00:13:16.948Z,0
2017-06-16T00:13:57.455Z,0
2017-06-16T00:14:37.937Z,0
2017-06-16T00:15:18.440Z,0
2017-06-16T00:15:58.939Z,0
2017-06-16T00:16:39.429Z,0
2017-06-16T00:17:19.935Z,0
2017-06-16T00:18:00.524Z,0
2017-06-16T00:18:40.969Z,0
2017-06-16T00:19:21.522Z,0
2017-06-16T00:20:02.063Z,0
2017-06-16T00:20:42.553Z,0
2017-06-16T00:21:23.065Z,0
2017-06-16T00:22:03.690Z,0
2017-06-16T00:22:44.188Z,0
2017-06-16T00:23:24.678Z,0
2017-06-16T00:24:05.189Z,0
2017-06-16T00:24:45.734Z,0
2017-06-16T00:25:26.210Z,0
2017-06-16T00:26:06.692Z,0
2017-06-16T00:26:47.221Z,0
2017-06-16T00:27:27.727Z,0
2017-06-16T00:28:08.202Z,0
2017-06-16T00:28:48.739Z,0
2017-06-16T00:29:29.230Z,0
2017-06-16T00:30:09.700Z,0
2017-06-16T00:30:50.208Z,0
2017-06-16T00:31:30.717Z,0
2017-06-16T00:32:11.164Z,0
2017-06-16T00:32:51.659Z,0
2017-06-16T00:33:32.197Z,0
2017-06-16T00:34:12.689Z,0
2017-06-16T00:34:53.185Z,0
2017-06-16T00:35:33.683Z,0
2017-06-16T00:36:14.186Z,0
2017-06-16T00:36:54.831Z,0
2017-06-16T00:37:35.255Z,0
2017-06-16T00:38:15.787Z,0
2017-06-16T00:38:56.207Z,0
2017-06-16T00:39:36.766Z,0
2017-06-16T00:40:17.211Z,0
2017-06-16T00:40:57.751Z,0
2017-06-16T00:41:38.242Z,0
2017-06-16T00:42:18.809Z,0
2017-06-16T00:42:59.290Z,0
2017-06-16T00:43:39.793Z,0
2017-06-16T00:44:20.307Z,0
2017-06-16T00:45:00.798Z,0
2017-06-16T00:45:41.314Z,0
2017-06-16T00:46:21.832Z,0
2017-06-16T00:47:02.358Z,0
2017-06-16T00:47:42.848Z,0
2017-06-16T00:48:23.375Z,0
2017-06-16T00:49:03.968Z,0
2017-06-16T00:49:44.479Z,0
2017-06-16T00:50:25.015Z,0
2017-06-16T00:51:05.466Z,0
2017-06-16T00:51:45.962Z,0
2017-06-16T00:52:26.464Z,0
2017-06-16T00:53:06.951Z,0
2017-06-16T00:53:47.473Z,0
2017-06-16T00:54:27.965Z,0
2017-06-16T00:55:08.514Z,0
2017-06-16T00:55:49.020Z,0
2017-06-16T00:56:29.481Z,0
2017-06-16T00:57:09.984Z,0
2017-06-16T00:57:50.547Z,0
2017-06-16T00:58:31.016Z,0
2017-06-16T00:59:11.538Z,0
2017-06-16T00:59:52.067Z,0
2017-06-16T01:00:32.637Z,0
2017-06-16T01:01:13.147Z,0
2017-06-16T01:01:53.659Z,0
2017-06-16T01:02:34.172Z,0
2017-06-16T01:03:14.701Z,0
2017-06-16T01:03:55.206Z,0
2017-06-16T01:04:35.720Z,0
2017-06-16T01:05:16.244Z,0
2017-06-16T01:05:56.763Z,0
2017-06-16T01:06:37.313Z,0
2017-06-16T01:07:17.830Z,0
2017-06-16T01:07:58.329Z,0
2017-06-16T01:08:38.874Z,0
2017-06-16T01:09:19.345Z,0
2017-06-16T01:09:59.845Z,0
2017-06-16T01:10:40.359Z,0
2017-06-16T01:11:20.833Z,0
2017-06-16T01:12:01.379Z,0
2017-06-16T01:12:41.878Z,0
2017-06-16T01:13:22.368Z,0
2017-06-16T01:14:03.002Z,0
2017-06-16T01:14:43.479Z,0
2017-06-16T01:15:23.997Z,0
2017-06-16T01:16:04.557Z,0
2017-06-16T01:16:45.003Z,0
2017-06-16T01:17:25.518Z,0
2017-06-16T01:18:06.053Z,0
2017-06-16T01:18:46.590Z,0
2017-06-16T01:19:27.069Z,0
2017-06-16T01:20:07.583Z,0
2017-06-16T01:20:48.066Z,0
2017-06-16T01:21:28.567Z,0
2017-06-16T01:22:09.100Z,0
2017-06-16T01:22:49.627Z,0
2017-06-16T01:23:30.122Z,0
2017-06-16T01:24:10.638Z,0
2017-06-16T01:24:51.138Z,0
2017-06-16T01:25:31.635Z,0
2017-06-16T01:26:12.175Z,0
2017-06-16T01:26:52.678Z,0
2017-06-16T01:27:33.140Z,0
2017-06-16T01:28:13.645Z,0
2017-06-16T01:28:54.139Z,0
2017-06-16T01:29:34.636Z,0
2017-06-16T01:30:15.151Z,0
2017-06-16T01:30:55.618Z,0
2017-06-16T01:31:36.173Z,0
2017-06-16T01:32:16.667Z,0
2017-06-16T01:32:57.141Z,0
2017-06-16T01:33:37.597Z,0
2017-06-16T01:34:18.118Z,0
2017-06-16T01:34:58.614Z,0
2017-06-16T01:35:39.114Z,0
2017-06-16T01:36:20.555Z,0
2017-06-16T01:37:01.065Z,0
2017-06-16T01:37:41.577Z,0
2017-06-16T01:38:22.108Z,0
2017-06-16T01:39:02.569Z,0
2017-06-16T01:39:43.092Z,0
2017-06-16T01:40:23.598Z,0
2017-06-16T01:41:04.115Z,0
2017-06-16T01:41:44.632Z,0
2017-06-16T01:42:25.075Z,0
2017-06-16T01:43:05.628Z,0
2017-06-16T01:43:46.131Z,0
2017-06-16T01:44:26.599Z,0
2017-06-16T01:45:07.120Z,0
2017-06-16T01:45:47.609Z,0
2017-06-16T01:46:28.132Z,0
2017-06-16T01:47:08.664Z,0
2017-06-16T01:47:49.128Z,0
2017-06-16T01:48:29.684Z,0
2017-06-16T01:49:10.137Z,0
2017-06-16T01:49:50.664Z,0
2017-06-16T01:50:31.135Z,0
2017-06-16T01:51:11.678Z,0
2017-06-16T01:51:52.136Z,0
2017-06-16T01:52:32.662Z,0
2017-06-16T01:53:13.130Z,0
2017-06-16T01:53:53.618Z,0
2017-06-16T01:54:34.131Z,0
2017-06-16T01:55:14.638Z,0
2017-06-16T01:55:55.206Z,0
2017-06-16T01:56:35.675Z,0
2017-06-16T01:57:16.180Z,0
2017-06-16T01:57:56.708Z,0
2017-06-16T01:58:37.179Z,0
2017-06-16T01:59:17.665Z,0
2017-06-16T01:59:58.178Z,0
2017-06-16T02:00:38.660Z,0
2017-06-16T02:01:19.164Z,0
2017-06-16T02:01:59.652Z,0
2017-06-16T02:02:40.222Z,0
2017-06-16T02:03:20.795Z,0
2017-06-16T02:04:01.250Z,0
2017-06-16T02:04:41.787Z,0
2017-06-16T02:05:22.288Z,0
2017-06-16T02:06:02.792Z,0
2017-06-16T02:06:43.316Z,0
2017-06-16T02:07:23.744Z,0
2017-06-16T02:08:04.233Z,0
2017-06-16T02:08:44.739Z,0
2017-06-16T02:09:25.277Z,0
2017-06-16T02:10:05.778Z,0
2017-06-16T02:10:46.257Z,0
2017-06-16T02:11:26.753Z,0
2017-06-16T02:12:07.254Z,0
2017-06-16T02:12:47.758Z,0
2017-06-16T02:13:28.318Z,0
2017-06-16T02:14:08.862Z,0
2017-06-16T02:14:49.309Z,0
2017-06-16T02:15:29.818Z,0
2017-06-16T02:16:10.303Z,0
2017-06-16T02:16:50.793Z,0
2017-06-16T02:17:31.350Z,0
2017-06-16T02:18:11.849Z,0
2017-06-16T02:18:52.556Z,0
2017-06-16T02:19:33.091Z,0
2017-06-16T02:20:13.556Z,0
2017-06-16T02:20:54.062Z,0
2017-06-16T02:21:34.552Z,0
2017-06-16T02:22:15.112Z,0
2017-06-16T02:22:55.604Z,0
2017-06-16T02:23:36.079Z,0
2017-06-16T02:24:16.579Z,0
2017-06-16T02:24:57.106Z,0
2017-06-16T02:25:37.641Z,0
2017-06-16T02:26:18.093Z,0
2017-06-16T02:26:58.619Z,0
2017-06-16T02:27:39.109Z,0
2017-06-16T02:28:19.587Z,0
2017-06-16T02:29:00.125Z,0
2017-06-16T02:29:40.649Z,0
2017-06-16T02:30:21.135Z,0
2017-06-16T02:31:01.628Z,0
2017-06-16T02:31:42.169Z,0
2017-06-16T02:32:22.712Z,0
2017-06-16T02:33:03.213Z,0
2017-06-16T02:33:43.681Z,0
2017-06-16T02:34:24.170Z,0
2017-06-16T02:35:04.712Z,0
2017-06-16T02:35:45.213Z,0
2017-06-16T02:36:25.695Z,0
2017-06-16T02:37:06.160Z,0
2017-06-16T02:37:46.678Z,0
2017-06-16T02:38:27.138Z,0
2017-06-16T02:39:07.675Z,0
2017-06-16T02:39:48.217Z,0
2017-06-16T02:40:28.650Z,0
2017-06-16T02:41:09.206Z,0
2017-06-16T02:41:49.664Z,0
2017-06-16T02:42:30.156Z,0
2017-06-16T02:43:10.626Z,0
2017-06-16T02:43:51.133Z,0
2017-06-16T02:44:31.664Z,0
2017-06-16T02:45:12.168Z,0
2017-06-16T02:45:52.635Z,0
2017-06-16T02:46:33.161Z,0
2017-06-16T02:47:13.690Z,0
2017-06-16T02:47:54.159Z,0
2017-06-16T02:48:34.665Z,0
2017-06-16T02:49:15.182Z,0
2017-06-16T02:49:55.682Z,0
2017-06-16T02:50:36.188Z,0
2017-06-16T02:51:16.732Z,0
2017-06-16T02:51:57.201Z,0
2017-06-16T02:52:37.738Z,0
2017-06-16T02:53:18.264Z,0
2017-06-16T02:53:58.778Z,0
2017-06-16T02:54:39.291Z,0
2017-06-16T02:55:19.788Z,0
2017-06-16T02:56:00.265Z,0
2017-06-16T02:56:40.781Z,0
2017-06-16T02:57:21.300Z,0
2017-06-16T02:58:01.743Z,0
2017-06-16T02:58:42.282Z,0
2017-06-16T02:59:22.780Z,0
2017-06-16T03:00:03.251Z,0
2017-06-16T03:00:43.777Z,0
2017-06-16T03:01:24.301Z,0
2017-06-16T03:02:04.808Z,0
2017-06-16T03:02:45.298Z,0
2017-06-16T03:03:25.756Z,0
2017-06-16T03:04:06.287Z,0
2017-06-16T03:04:46.786Z,0
2017-06-16T03:05:27.321Z,0
2017-06-16T03:06:07.815Z,0
2017-06-16T03:06:48.302Z,0
2017-06-16T03:07:28.861Z,0
2017-06-16T03:08:09.317Z,0
2017-06-16T03:08:49.801Z,0
2017-06-16T03:09:30.520Z,0
2017-06-16T03:10:11.002Z,0
2017-06-16T03:10:51.521Z,0
2017-06-16T03:11:32.001Z,0
2017-06-16T03:12:12.531Z,0
2017-06-16T03:12:53.027Z,0
2017-06-16T03:13:33.543Z,0
2017-06-16T03:14:14.039Z,0
2017-06-16T03:14:54.507Z,0
2017-06-16T03:15:35.024Z,0
2017-06-16T03:16:15.511Z,0
2017-06-16T03:16:56.001Z,0
2017-06-16T03:17:36.533Z,0
2017-06-16T03:18:17.019Z,0
2017-06-16T03:18:57.519Z,0
2017-06-16T03:19:38.038Z,0
2017-06-16T03:20:18.535Z,0
2017-06-16T03:20:59.041Z,0
2017-06-16T03:21:39.502Z,0
2017-06-16T03:22:20.008Z,0
2017-06-16T03:23:00.521Z,0
2017-06-16T03:23:41.029Z,0
2017-06-16T03:24:21.548Z,0
2017-06-16T03:25:02.025Z,0
2017-06-16T03:25:42.487Z,0
2017-06-16T03:26:23.038Z,0
2017-06-16T03:27:03.559Z,0
2017-06-16T03:27:44.035Z,0
2017-06-16T03:28:24.522Z,0
2017-06-16T03:29:05.026Z,0
2017-06-16T03:29:45.524Z,0
2017-06-16T03:30:26.043Z,0
2017-06-16T03:31:06.589Z,0
2017-06-16T03:31:47.091Z,0
2017-06-16T03:32:27.588Z,0
2017-06-16T03:33:08.065Z,0
2017-06-16T03:33:48.606Z,0
2017-06-16T03:34:29.060Z,0
2017-06-16T03:35:09.563Z,0
2017-06-16T03:35:50.137Z,0
2017-06-16T03:36:30.611Z,0
2017-06-16T03:37:11.124Z,0
2017-06-16T03:37:51.576Z,0
2017-06-16T03:38:32.109Z,0
2017-06-16T03:39:12.605Z,0
2017-06-16T03:39:53.116Z,0
2017-06-16T03:40:33.577Z,0
2017-06-16T03:41:14.098Z,0
2017-06-16T03:41:54.574Z,0
2017-06-16T03:42:35.079Z,0
2017-06-16T03:43:15.576Z,0
2017-06-16T03:43:56.076Z,0
2017-06-16T03:44:36.538Z,0
2017-06-16T03:45:17.074Z,0
2017-06-16T03:45:57.566Z,0
2017-06-16T03:46:38.071Z,0
2017-06-16T03:47:18.560Z,0
2017-06-16T03:47:59.037Z,0
2017-06-16T03:48:39.543Z,0
2017-06-16T03:49:20.058Z,0
2017-06-16T03:50:00.596Z,0
2017-06-16T03:50:41.068Z,0
2017-06-16T03:51:21.585Z,0
2017-06-16T03:52:02.137Z,0
2017-06-16T03:52:42.556Z,0
2017-06-16T03:53:23.042Z,0
2017-06-16T03:54:03.563Z,0
2017-06-16T03:54:44.121Z,0
2017-06-16T03:55:24.570Z,0
2017-06-16T03:56:05.073Z,0
2017-06-16T03:56:45.586Z,0
2017-06-16T03:57:26.096Z,0
2017-06-16T03:58:06.622Z,0
2017-06-16T03:58:47.123Z,0
2017-06-16T03:59:27.636Z,0
2017-06-16T04:00:08.123Z,0
2017-06-16T04:00:48.610Z,0
2017-06-16T04:01:29.150Z,0
2017-06-16T04:02:09.966Z,0
2017-06-16T04:02:50.524Z,0
2017-06-16T04:03:30.985Z,0
2017-06-16T04:04:11.542Z,5
2017-06-16T04:04:52.011Z,5
2017-06-16T04:05:32.501Z,5
2017-06-16T04:06:13.025Z,5
2017-06-16T04:06:53.551Z,5
2017-06-16T04:07:34.097Z,5
2017-06-16T04:08:14.583Z,5
2017-06-16T04:08:55.086Z,5
2017-06-16T04:09:35.569Z,5
2017-06-16T04:10:16.071Z,5
2017-06-16T04:10:56.603Z,5
2017-06-16T04:11:37.130Z,5
2017-06-16T04:12:17.623Z,5
2017-06-16T04:12:58.110Z,5
2017-06-16T04:13:38.637Z,5
2017-06-16T04:14:19.189Z,5
2017-06-16T04:14:59.700Z,5
2017-06-16T04:15:40.174Z,5
2017-06-16T04:16:20.678Z,5
2017-06-16T04:17:01.131Z,5
2017-06-16T04:17:41.819Z,5
2017-06-16T04:18:22.271Z,5
2017-06-16T04:19:02.730Z,5
2017-06-16T04:19:43.186Z,5
2017-06-16T04:20:23.660Z,5
2017-06-16T04:21:04.164Z,5
2017-06-16T04:21:44.723Z,5
2017-06-16T04:22:25.154Z,10
2017-06-16T04:23:05.713Z,10
2017-06-16T04:23:46.150Z,10
2017-06-16T04:24:26.699Z,10
2017-06-16T04:25:07.184Z,10
2017-06-16T04:25:47.741Z,10
2017-06-16T04:26:28.270Z,10
2017-06-16T04:27:08.729Z,10
2017-06-16T04:27:49.221Z,10
2017-06-16T04:28:29.665Z,10
2017-06-16T04:29:10.243Z,10
2017-06-16T04:29:50.710Z,10
2017-06-16T04:30:31.182Z,10
2017-06-16T04:31:11.712Z,10
2017-06-16T04:31:52.180Z,10
2017-06-16T04:32:32.677Z,15
2017-06-16T04:33:13.166Z,15
2017-06-16T04:33:53.721Z,15
2017-06-16T04:34:34.179Z,15
2017-06-16T04:35:14.726Z,15
2017-06-16T04:35:55.217Z,15
2017-06-16T04:36:35.722Z,15
2017-06-16T04:37:16.183Z,15
2017-06-16T04:37:56.702Z,15
2017-06-16T04:38:37.170Z,15
2017-06-16T04:39:17.633Z,15
2017-06-16T04:39:58.154Z,15
2017-06-16T04:40:38.664Z,15
2017-06-16T04:41:19.135Z,15
2017-06-16T04:41:59.611Z,15
2017-06-16T04:42:40.151Z,20
2017-06-16T04:43:20.614Z,20
2017-06-16T04:44:01.152Z,20
2017-06-16T04:44:41.628Z,20
2017-06-16T04:45:22.131Z,20
2017-06-16T04:46:02.623Z,25
2017-06-16T04:46:43.115Z,20
2017-06-16T04:47:23.614Z,20
2017-06-16T04:48:04.143Z,20
2017-06-16T04:48:44.648Z,20
2017-06-16T04:49:25.087Z,20
2017-06-16T04:50:05.589Z,20
2017-06-16T04:50:46.079Z,15
2017-06-16T04:51:26.630Z,15
2017-06-16T04:52:07.128Z,15
2017-06-16T04:52:47.685Z,15
2017-06-16T04:53:28.179Z,15
2017-06-16T04:54:08.745Z,25
2017-06-16T04:54:49.237Z,25
2017-06-16T04:55:29.716Z,25
2017-06-16T04:56:10.240Z,20
2017-06-16T04:56:50.721Z,20
2017-06-16T04:57:31.237Z,25
2017-06-16T04:58:11.703Z,30
2017-06-16T04:58:52.202Z,25
2017-06-16T04:59:32.796Z,20
2017-06-16T05:00:13.318Z,25
2017-06-16T05:00:53.916Z,70
2017-06-16T05:01:34.451Z,25
2017-06-16T05:02:14.937Z,35
2017-06-16T05:02:55.450Z,25
2017-06-16T05:03:35.994Z,20
2017-06-16T05:04:16.515Z,20
2017-06-16T05:04:57.150Z,20
2017-06-16T05:05:37.733Z,15
2017-06-16T05:06:18.223Z,20
2017-06-16T05:06:58.751Z,20
2017-06-16T05:07:39.235Z,20
2017-06-16T05:08:19.897Z,20
2017-06-16T05:09:00.391Z,20
2017-06-16T05:09:40.900Z,20
2017-06-16T05:10:21.375Z,25
2017-06-16T05:11:01.867Z,25
2017-06-16T05:11:42.391Z,25
2017-06-16T05:12:22.900Z,30
2017-06-16T05:13:03.388Z,35
2017-06-16T05:13:43.876Z,35
2017-06-16T05:14:24.400Z,30
2017-06-16T05:15:04.923Z,145
2017-06-16T05:15:45.446Z,115
2017-06-16T05:16:25.963Z,90
2017-06-16T05:17:06.458Z,85
2017-06-16T05:17:46.950Z,110
2017-06-16T05:18:27.484Z,50
2017-06-16T05:19:07.974Z,60
2017-06-16T05:19:49.119Z,50
2017-06-16T05:20:29.600Z,100
2017-06-16T05:21:10.135Z,75
2017-06-16T05:21:50.661Z,45
2017-06-16T05:22:31.117Z,40
2017-06-16T05:23:11.640Z,45
2017-06-16T05:23:52.647Z,35
2017-06-16T05:24:33.223Z,125
2017-06-16T05:25:13.861Z,100
2017-06-16T05:25:54.354Z,130
2017-06-16T05:26:34.869Z,285
2017-06-16T05:27:15.360Z,165
2017-06-16T05:27:55.883Z,140
2017-06-16T05:28:36.376Z,50
2017-06-16T05:29:16.835Z,35
2017-06-16T05:29:57.373Z,50
2017-06-16T05:30:37.971Z,35
2017-06-16T05:31:18.392Z,40
2017-06-16T05:31:58.924Z,40
2017-06-16T05:32:39.429Z,35
2017-06-16T05:33:19.968Z,40
2017-06-16T05:34:00.499Z,35
2017-06-16T05:34:40.962Z,35
2017-06-16T05:35:21.514Z,35
2017-06-16T05:36:02.005Z,35
2017-06-16T05:36:42.527Z,30
2017-06-16T05:37:23.011Z,30
2017-06-16T05:38:03.471Z,25
2017-06-16T05:38:44.192Z,30
2017-06-16T05:39:24.545Z,45
2017-06-16T05:40:04.980Z,35
2017-06-16T05:40:45.519Z,35
2017-06-16T05:41:26.017Z,210
2017-06-16T05:42:06.488Z,35
2017-06-16T05:42:47.000Z,35
2017-06-16T05:43:27.465Z,240
2017-06-16T05:44:08.793Z,30
2017-06-16T05:44:49.332Z,30
2017-06-16T05:45:29.870Z,30
2017-06-16T05:46:10.538Z,30
2017-06-16T05:48:23.815Z,60
2017-06-16T05:49:04.351Z,35
2017-06-16T05:49:44.857Z,75
2017-06-16T05:50:25.361Z,195
2017-06-16T05:51:05.926Z,135
2017-06-16T05:51:46.444Z,255
2017-06-16T05:52:27.035Z,335
2017-06-16T05:53:07.601Z,170
2017-06-16T05:53:48.116Z,50
2017-06-16T05:56:21.855Z,95
2017-06-16T05:57:02.382Z,125
2017-06-16T05:57:42.913Z,125
2017-06-16T05:58:23.453Z,135
2017-06-16T05:59:03.974Z,130
2017-06-16T05:59:44.585Z,145
2017-06-16T06:00:25.297Z,135
2017-06-16T06:01:05.868Z,130
2017-06-16T06:01:46.463Z,150
2017-06-16T06:02:27.354Z,90
2017-06-16T06:03:07.549Z,100
2017-06-16T06:03:48.085Z,115
2017-06-16T06:04:28.603Z,95
2017-06-16T06:05:09.356Z,95
2017-06-16T06:05:49.807Z,105
2017-06-16T06:06:30.336Z,60
2017-06-16T06:07:10.832Z,75
2017-06-16T06:07:51.378Z,85
2017-06-16T06:08:31.892Z,75
2017-06-16T06:09:12.410Z,60
2017-06-16T06:09:52.902Z,60
2017-06-16T06:10:33.401Z,65
2017-06-16T06:11:13.912Z,60
2017-06-16T06:11:54.414Z,75
2017-06-16T06:12:34.958Z,60
2017-06-16T06:13:15.442Z,50
2017-06-16T06:13:56.259Z,50
2017-06-16T06:14:36.534Z,50
2017-06-16T06:15:17.023Z,50
2017-06-16T06:15:57.524Z,55
2017-06-16T06:16:38.063Z,65
2017-06-16T06:17:18.593Z,65
2017-06-16T06:17:59.137Z,60
2017-06-16T06:18:39.686Z,65
2017-06-16T06:19:20.183Z,120
2017-06-16T06:20:00.712Z,165
2017-06-16T06:20:41.253Z,75
2017-06-16T06:21:21.793Z,145
2017-06-16T06:22:02.324Z,130
2017-06-16T06:22:42.839Z,140
2017-06-16T06:23:23.401Z,75
2017-06-16T06:24:03.929Z,125
2017-06-16T06:24:44.465Z,125
2017-06-16T06:25:24.988Z,115
2017-06-16T06:26:05.518Z,85
2017-06-16T06:26:46.033Z,135
2017-06-16T06:27:26.581Z,125
2017-06-16T06:28:07.094Z,90
2017-06-16T06:28:47.658Z,130
2017-06-16T06:29:28.151Z,125
2017-06-16T06:30:08.658Z,130
2017-06-16T06:30:49.222Z,125
2017-06-16T06:31:29.833Z,125
2017-06-16T06:32:10.356Z,125
2017-06-16T06:32:50.889Z,125
2017-06-16T06:33:31.364Z,130
2017-06-16T06:34:11.953Z,135
2017-06-16T06:34:52.398Z,130
2017-06-16T06:35:32.898Z,125
2017-06-16T06:36:13.412Z,80
2017-06-16T06:36:53.923Z,145
2017-06-16T06:37:34.444Z,115
2017-06-16T06:38:14.939Z,80
2017-06-16T06:38:55.434Z,95
2017-06-16T06:39:36.007Z,85
2017-06-16T06:40:16.456Z,120
2017-06-16T06:40:56.991Z,85
2017-06-16T06:41:37.499Z,80
2017-06-16T06:42:18.000Z,80
2017-06-16T06:42:58.521Z,115
2017-06-16T06:43:39.169Z,135
2017-06-16T06:44:19.594Z,70
2017-06-16T06:45:00.081Z,80
2017-06-16T06:45:40.623Z,75
2017-06-16T06:46:21.091Z,105
2017-06-16T06:47:01.586Z,80
2017-06-16T06:47:42.079Z,120
2017-06-16T06:48:22.581Z,135
2017-06-16T06:49:03.106Z,135
2017-06-16T06:49:43.609Z,135
2017-06-16T06:50:24.069Z,140
2017-06-16T06:51:04.572Z,120
2017-06-16T06:51:45.066Z,130
2017-06-16T06:52:25.592Z,150
2017-06-16T06:53:06.068Z,95
2017-06-16T06:53:46.540Z,130
2017-06-16T06:54:27.049Z,105
2017-06-16T06:55:07.634Z,140
2017-06-16T06:55:48.120Z,125
2017-06-16T06:56:28.625Z,120
2017-06-16T06:57:09.144Z,110
2017-06-16T06:57:49.607Z,115
2017-06-16T06:58:30.235Z,110
2017-06-16T06:59:10.656Z,115
2017-06-16T06:59:51.158Z,115
2017-06-16T07:00:31.727Z,120
2017-06-16T07:03:10.319Z,120
2017-06-16T07:03:50.827Z,125
2017-06-16T07:04:31.357Z,110
2017-06-16T07:05:11.952Z,115
2017-06-16T07:07:25.211Z,105
2017-06-16T07:08:05.731Z,105
2017-06-16T07:08:46.250Z,105
2017-06-16T07:09:26.798Z,105
2017-06-16T07:10:07.304Z,100
2017-06-16T07:10:47.819Z,100
2017-06-16T07:11:28.349Z,115
2017-06-16T07:12:08.863Z,90
2017-06-16T07:12:49.417Z,90
2017-06-16T07:13:29.960Z,65
2017-06-16T07:14:10.491Z,65
2017-06-16T07:14:51.019Z,65
2017-06-16T07:15:31.502Z,80
2017-06-16T07:16:12.027Z,75
2017-06-16T07:16:52.534Z,65
2017-06-16T07:17:33.136Z,80
2017-06-16T07:18:13.619Z,110
2017-06-16T07:18:54.133Z,70
2017-06-16T07:19:34.658Z,90
2017-06-16T07:20:15.182Z,85
2017-06-16T07:20:55.724Z,100
2017-06-16T07:21:36.240Z,65
2017-06-16T07:22:16.768Z,65
2017-06-16T07:22:57.292Z,70
2017-06-16T07:23:37.795Z,65
2017-06-16T07:24:18.318Z,90
2017-06-16T07:24:58.806Z,85
2017-06-16T07:25:39.323Z,90
2017-06-16T07:26:19.789Z,80
2017-06-16T07:27:00.313Z,65
2017-06-16T07:27:40.773Z,75
2017-06-16T07:28:21.313Z,75
2017-06-16T07:29:01.821Z,70
2017-06-16T07:29:42.342Z,70
2017-06-16T07:30:22.910Z,80
2017-06-16T07:31:03.439Z,65
2017-06-16T07:31:43.968Z,85
2017-06-16T07:32:24.486Z,70
2017-06-16T07:33:05.024Z,70
2017-06-16T07:33:45.569Z,65
2017-06-16T07:34:26.083Z,65
2017-06-16T07:35:06.631Z,80
2017-06-16T07:35:47.163Z,90
2017-06-16T07:36:27.687Z,95
2017-06-16T07:37:08.209Z,90
2017-06-16T07:37:48.731Z,85
2017-06-16T07:38:29.263Z,70
2017-06-16T07:39:09.774Z,65
2017-06-16T07:39:50.325Z,90
2017-06-16T07:40:30.861Z,80
2017-06-16T07:41:11.412Z,90
2017-06-16T07:41:51.929Z,90
2017-06-16T07:42:32.462Z,90
2017-06-16T07:43:13.022Z,90
2017-06-16T07:43:53.542Z,90
2017-06-16T07:44:34.101Z,90
2017-06-16T07:45:14.616Z,85
2017-06-16T07:45:55.144Z,90
2017-06-16T07:46:35.666Z,90
2017-06-16T07:47:16.187Z,90
2017-06-16T07:47:56.705Z,85
2017-06-16T07:48:37.255Z,85
2017-06-16T07:49:17.777Z,90
2017-06-16T07:49:58.318Z,90
2017-06-16T07:52:31.947Z,80
2017-06-16T07:53:12.477Z,75
2017-06-16T07:53:53.004Z,85
2017-06-16T07:54:33.578Z,85
2017-06-16T07:55:14.149Z,80
2017-06-16T07:55:54.677Z,75
2017-06-16T07:56:35.203Z,70
2017-06-16T07:57:15.726Z,65
2017-06-16T07:57:56.283Z,70
2017-06-16T07:58:36.803Z,75
2017-06-16T07:59:17.342Z,75
2017-06-16T07:59:57.857Z,75
2017-06-16T08:00:38.378Z,75
2017-06-16T08:01:18.928Z,75
2017-06-16T08:01:59.451Z,75
2017-06-16T08:02:40.047Z,75
2017-06-16T08:03:20.550Z,75
2017-06-16T08:04:01.104Z,75
2017-06-16T08:04:41.588Z,70
2017-06-16T08:05:22.114Z,70
2017-06-16T08:06:02.667Z,70
2017-06-16T08:06:43.169Z,70
2017-06-16T08:07:23.693Z,70
2017-06-16T08:09:58.421Z,65
2017-06-16T08:10:38.946Z,70
2017-06-16T08:11:19.483Z,65
2017-06-16T08:12:00.146Z,65
2017-06-16T08:12:40.680Z,70
2017-06-16T08:13:21.206Z,65
2017-06-16T08:14:01.729Z,65
2017-06-16T08:14:42.250Z,60
2017-06-16T08:15:22.753Z,60
2017-06-16T08:16:03.277Z,60
2017-06-16T08:16:43.859Z,60
2017-06-16T08:17:24.372Z,60
2017-06-16T08:18:04.926Z,60
2017-06-16T08:18:45.405Z,60
2017-06-16T08:19:25.912Z,60
2017-06-16T08:20:06.419Z,60
2017-06-16T08:20:46.968Z,60
2017-06-16T08:21:27.472Z,60
2017-06-16T08:22:07.998Z,60
2017-06-16T08:22:48.587Z,60
2017-06-16T08:23:29.084Z,60
2017-06-16T08:24:09.565Z,60
2017-06-16T08:24:50.074Z,60
2017-06-16T08:25:30.590Z,60
2017-06-16T08:26:11.118Z,55
2017-06-16T08:26:51.641Z,55
2017-06-16T08:27:32.169Z,55
2017-06-16T08:28:12.682Z,55
2017-06-16T08:28:53.182Z,55
2017-06-16T08:29:33.675Z,50
2017-06-16T08:30:14.216Z,50
2017-06-16T08:30:54.736Z,45
2017-06-16T08:31:35.264Z,45
2017-06-16T08:32:15.836Z,40
2017-06-16T08:32:56.317Z,40
2017-06-16T08:33:36.775Z,40
2017-06-16T08:34:17.279Z,40
2017-06-16T08:34:57.858Z,40
2017-06-16T08:35:38.434Z,40
2017-06-16T08:36:18.976Z,40
2017-06-16T08:36:59.478Z,40
2017-06-16T08:37:39.897Z,40
2017-06-16T08:38:20.426Z,40
2017-06-16T08:39:00.894Z,40
2017-06-16T08:39:41.420Z,40
2017-06-16T08:40:21.936Z,40
2017-06-16T08:41:02.411Z,40
2017-06-16T08:41:42.943Z,40
2017-06-16T08:42:23.430Z,40
2017-06-16T08:43:03.929Z,40
2017-06-16T08:43:44.430Z,40
2017-06-16T08:44:25.011Z,40
2017-06-16T08:45:05.493Z,40
2017-06-16T08:45:46.026Z,40
2017-06-16T08:46:26.564Z,40
2017-06-16T08:47:07.067Z,40
2017-06-16T08:47:47.607Z,40
2017-06-16T08:48:28.126Z,40
2017-06-16T08:49:08.630Z,40
2017-06-16T08:49:49.148Z,40
2017-06-16T08:50:29.657Z,40
2017-06-16T08:51:10.270Z,40
2017-06-16T08:51:50.806Z,40
2017-06-16T08:52:31.243Z,40
2017-06-16T08:53:11.753Z,40
2017-06-16T08:53:52.279Z,40
2017-06-16T08:54:32.814Z,40
2017-06-16T08:55:13.329Z,40
2017-06-16T08:55:53.854Z,40
2017-06-16T08:56:34.386Z,40
2017-06-16T08:57:14.917Z,40
2017-06-16T08:57:55.460Z,40
2017-06-16T08:58:35.978Z,40
2017-06-16T08:59:16.573Z,40
2017-06-16T08:59:57.102Z,40
2017-06-16T09:00:37.641Z,40
2017-06-16T09:01:18.256Z,40
2017-06-16T09:01:58.789Z,40
2017-06-16T09:02:39.318Z,45
2017-06-16T09:03:20.025Z,40
2017-06-16T09:04:00.582Z,40
2017-06-16T09:04:41.129Z,40
2017-06-16T09:05:21.647Z,40
2017-06-16T09:06:02.199Z,40
2017-06-16T09:06:42.734Z,40
2017-06-16T09:07:23.253Z,40
2017-06-16T09:08:03.791Z,40
2017-06-16T09:08:44.324Z,40
2017-06-16T09:09:24.847Z,40
2017-06-16T09:10:05.392Z,45
2017-06-16T09:10:45.866Z,45
2017-06-16T09:11:26.425Z,45
2017-06-16T09:12:06.933Z,45
2017-06-16T09:12:47.473Z,45
2017-06-16T09:13:27.932Z,45
2017-06-16T09:14:08.469Z,45
2017-06-16T09:14:48.996Z,45
2017-06-16T09:15:29.523Z,45
2017-06-16T09:16:10.016Z,45
2017-06-16T09:16:50.526Z,45
2017-06-16T09:17:31.041Z,45
2017-06-16T09:18:11.564Z,45
2017-06-16T09:18:52.118Z,45
2017-06-16T09:19:32.682Z,45
2017-06-16T09:20:13.179Z,45
2017-06-16T09:20:53.711Z,45
2017-06-16T09:21:34.212Z,45
2017-06-16T09:22:14.716Z,45
2017-06-16T09:22:55.220Z,45
2017-06-16T09:23:35.732Z,45
2017-06-16T09:24:16.262Z,50
2017-06-16T09:24:56.721Z,45
2017-06-16T09:25:37.226Z,50
2017-06-16T09:26:17.723Z,50
2017-06-16T09:26:58.252Z,50
2017-06-16T09:27:38.721Z,50
2017-06-16T09:28:19.203Z,35
2017-06-16T09:28:59.713Z,50
2017-06-16T09:29:40.209Z,50
2017-06-16T09:30:20.742Z,50
2017-06-16T09:31:01.239Z,45
2017-06-16T09:31:41.737Z,50
2017-06-16T09:32:22.241Z,45
2017-06-16T09:33:02.778Z,50
2017-06-16T09:33:43.250Z,50
2017-06-16T09:34:23.750Z,40
2017-06-16T09:35:04.247Z,55
2017-06-16T09:35:44.761Z,55
2017-06-16T09:36:25.262Z,50
2017-06-16T09:37:05.734Z,40
2017-06-16T09:37:46.301Z,50
2017-06-16T09:38:26.829Z,45
2017-06-16T09:39:07.383Z,35
2017-06-16T09:39:47.919Z,50
2017-06-16T09:40:28.403Z,50
2017-06-16T09:41:08.906Z,50
2017-06-16T09:41:49.401Z,45
2017-06-16T09:42:29.918Z,45
2017-06-16T09:43:10.455Z,30
2017-06-16T09:43:50.956Z,40
2017-06-16T09:44:31.466Z,50
2017-06-16T09:45:11.998Z,45
2017-06-16T09:45:52.524Z,50
2017-06-16T09:46:33.079Z,50
2017-06-16T09:47:13.646Z,50
2017-06-16T09:47:54.137Z,35
2017-06-16T09:48:34.678Z,35
2017-06-16T09:49:15.228Z,35
2017-06-16T09:49:55.758Z,40
2017-06-16T09:50:36.304Z,35
2017-06-16T09:51:16.825Z,35
2017-06-16T09:51:57.339Z,35
2017-06-16T09:52:37.877Z,35
2017-06-16T09:53:18.411Z,50
2017-06-16T09:53:58.930Z,45
2017-06-16T09:54:39.483Z,45
2017-06-16T09:55:20.008Z,45
2017-06-16T09:56:00.548Z,45